ENKB/KSU METAR and TAF weather

Enter ICAO airport designator
Station Type Date Time Source
ENKB METAR 2020/11/28 19:50 UTC NOAA

ENKB 281950Z AUTO 11005KT 070V150 9999 SCT049/// 04/M03 Q1025 RMK WIND 745FT 16011KT


Station Type Date Time Source
ENKB Decoded METAR 2020/11/28 19:50 UTC NOAA

Kristiansund / Kvernberget, Norway (ENKB) 63-07N 007-50E 62M
Nov 28, 2020 - 02:50 PM EST / 2020.11.28 1950 UTC
Wind: from the ESE (110 degrees) at 6 MPH (5 KT) (direction variable):0
Visibility: greater than 7 mile(s):0
Sky conditions: partly cloudy
Temperature: 39 F (4 C)
Dew Point: 26 F (-3 C)
Relative Humidity: 60%
Pressure (altimeter): 30.27 in. Hg (1025 hPa)
ob: ENKB 281950Z AUTO 11005KT 070V150 9999 SCT049/// 04/M03 Q1025 RMK WIND 745FT 16011KT
cycle: 20

Station Type Date Time Source
ENKB TAF 2010/02/05 07:50 UTC NOAA

METAR ENKB 050750Z 15011KT 110V200 9999 SCT055 BKN070 03/M05 Q1007

Example: see airport list